Alella, Spain
Current Conditions -  °F | °C
As of 5:00 AM on Monday 26 Jan 2015 (Local Time) from LEBL Reporting Station
Clear Clear  
Wind Chill: 35°   Ceiling: Unl
Heat Index: 43°   Visibility: 6mi
Dew Point: 25°   Wind: 16mph
Humidity: 49%   Direction: 320°NW
Pressure: 30.24"   Gusts: NA
Location:  41.49°N, 2.29°E
Report Text: LEBL 260400Z 32014KT CAVOK 06/M04 Q1024 NOSIG
Loading
Personal Weather Stations






























Interactive Weather Map New forecast layout! Learn more

10-Day Weather Forecast

Advertisements
Track Severe Weather on mobile